Nearby Meteorological Terminal Aviation Routine Weather Reports (METAR)
KAVP - Avoca/Wilkes B., Pennsylvania, USA
Distance from station: NE 13mi, 20km
Updated: Tue, 16-Jul-2019 5:54am EDT
Clear
Clear
 Wind from E
Wind: E 7 mph , 11 km/h
Temperature: 63°F , 17°C
Dew Point: 57°F , 14°C
Humidity: 83%
Barometer: 30.10 inHg , 1019.3 hPa
Clouds: Clear
Visibility: 10 miles , 16 km
2019/07/16 09:54 KAVP 160954Z 10006KT 10SM CLR 17/14 A3010 RMK AO2 SLP182 T01720144
KMPO - Mt. Pocono, Pennsylvania, USA
Distance from station: ESE 28mi, 45km
Updated: Tue, 16-Jul-2019 5:53am EDT
Clear
Clear
 Wind from calm
Wind: Calm
Temperature: 55°F , 13°C
Dew Point: 55°F , 13°C
Humidity: 100%
Barometer: 30.13 inHg , 1020.3 hPa
Clouds: Clear
Visibility: 10 miles , 16 km
2019/07/16 09:53 KMPO 160953Z AUTO 00000KT 10SM CLR 13/13 A3013 RMK AO2 SLP195 T01280128
 
KABE - Allentown, Pennsylvania, USA
Distance from station: SSE 46mi, 74km
Updated: Tue, 16-Jul-2019 5:51am EDT
Clear
Clear
 Wind from calm
Wind: Calm
Temperature: 64°F , 18°C
Dew Point: 61°F , 16°C
Humidity: 88%
Barometer: 30.08 inHg , 1018.6 hPa
Clouds: Clear
Visibility: 9 miles , 14 km
2019/07/16 09:51 KABE 160951Z 00000KT 9SM CLR 18/16 A3008 RMK AO2 SLP184 T01780161
KXLL - Allentown Queen, Pennsylvania, USA
Distance from station: SSE 50mi, 81km
Updated: Tue, 16-Jul-2019 5:55am EDT
Clear
Clear
 Wind from calm
Wind: Calm
Temperature: 64°F , 18°C
Dew Point: 63°F , 17°C
Humidity: 94%
Barometer: 30.09 inHg , 1019 hPa
Clouds: Clear
Visibility: 10 miles , 16 km
2019/07/16 09:55 KXLL 160955Z AUTO 00000KT 10SM CLR 18/17 A3009 RMK AO2
 
KIPT - Williamsport, Pennsylvania, USA
Distance from station: W 52mi, 84km
Updated: Tue, 16-Jul-2019 5:54am EDT
Clear
Clear
 Wind from NW
Wind: NW 3 mph , 6 km/h
Temperature: 61°F , 16°C
Dew Point: 59°F , 15°C
Humidity: 94%
Barometer: 30.08 inHg , 1018.6 hPa
Clouds: Clear
Visibility: 10 miles , 16 km
2019/07/16 09:54 KIPT 160954Z AUTO 31003KT 10SM CLR 16/15 A3008 RMK AO2 SLP183 T01610150
KSEG - Selinsgrove, Pennsylvania, USA
Distance from station: WSW 57mi, 92km
Updated: Tue, 16-Jul-2019 5:53am EDT
Clear
Clear
 Wind from calm
Wind: Calm
Temperature: 61°F , 16°C
Dew Point: 59°F , 15°C
Humidity: 94%
Barometer: 30.08 inHg , 1018.6 hPa
Clouds: Clear
Visibility: 8 miles , 13 km
2019/07/16 09:53 KSEG 160953Z AUTO 00000KT 8SM CLR 16/15 A3008 RMK AO2 SLP184 T01560150
 
KRDG - Reading, Pennsylvania, USA
Distance from station: S 59mi, 95km
Updated: Tue, 16-Jul-2019 5:54am EDT
Clear
Clear
 Wind from calm
Wind: Calm
Temperature: 64°F , 18°C
Dew Point: 64°F , 18°C
Humidity: 100%
Barometer: 30.07 inHg , 1018.3 hPa
Clouds: Clear
Visibility: 10 miles , 16 km
2019/07/16 09:54 KRDG 160954Z 00000KT 10SM CLR 18/18 A3007 RMK AO2 SLP186 T01830183
KUKT - Quakertown Arp, Pennsylvania, USA
Distance from station: SSE 61mi, 98km
Updated: Tue, 16-Jul-2019 6:00am EDT
Clear
Clear
 Wind from calm
Wind: Calm
Temperature: 61°F , 16°C
Dew Point: 61°F , 16°C
Humidity: 100%
Barometer: 30.10 inHg , 1019.3 hPa
Clouds: Clear
Visibility: 10 miles , 16 km
2019/07/16 10:00 KUKT 161000Z AUTO 00000KT 10SM CLR 16/16 A3010 RMK A01
 
K12N - Andover, New Jersey, USA
Distance from station: ESE 63mi, 101km
Updated: Tue, 16-Jul-2019 5:54am EDT

 Wind from calm
Wind: Calm
Temperature: 61°F , 16°C
Dew Point: 59°F , 15°C
Humidity: 94%
Barometer: 30.10 inHg , 1019.3 hPa
2019/07/16 09:54 K12N 160954Z AUTO 00000KT 16/15 A3010 RMK AO1 SLP184 T01610150
KMUI - Muir Aaf/Indiant, Pennsylvania, USA
Distance from station: SSW 65mi, 105km
Updated: Tue, 16-Jul-2019 5:56am EDT
Clear
Clear
 Wind from calm
Wind: Calm
Temperature: 61°F , 16°C
Dew Point: 59°F , 15°C
Humidity: 94%
Barometer: 30.08 inHg , 1018.6 hPa
Clouds: Clear
Visibility: 10 miles , 16 km
2019/07/16 09:56 KMUI 160956Z AUTO 00000KT 10SM CLR 16/15 A3008 RMK AO2 SLP186 T01630148
 
KFWN - Sussex, New Jersey, USA
Distance from station: E 66mi, 107km
Updated: Tue, 16-Jul-2019 5:53am EDT
Clear
Clear
 Wind from calm
Wind: Calm
Temperature: 59°F , 15°C
Dew Point: 57°F , 14°C
Humidity: 94%
Barometer: 30.09 inHg , 1019 hPa
Clouds: Clear
Visibility: 10 miles , 16 km
2019/07/16 09:53 KFWN 160953Z AUTO 00000KT 10SM CLR 15/14 A3009 RMK AO2 SLP187 T01500139
KMSV - Monticello, New York, USA
Distance from station: ENE 67mi, 108km
Updated: Tue, 16-Jul-2019 5:56am EDT
Clear
Clear
 Wind from calm
Wind: Calm
Temperature: 57°F , 14°C
Dew Point: 55°F , 13°C
Humidity: 94%
Barometer: 30.13 inHg , 1020.3 hPa
Clouds: Clear
Visibility: 10 miles , 16 km
2019/07/16 09:56 KMSV 160956Z AUTO 00000KT 10SM CLR 14/13 A3013 RMK AO2 SLP195 T01440128
 
KBGM - Binghamton, New York, USA
Distance from station: N 69mi, 111km
Updated: Tue, 16-Jul-2019 5:53am EDT
Clear
Clear
 Wind from calm
Wind: Calm
Temperature: 63°F , 17°C
Dew Point: 55°F , 13°C
Humidity: 77%
Barometer: 30.09 inHg , 1019 hPa
Clouds: Clear
Visibility: 10 miles , 16 km
2019/07/16 09:53 KBGM 160953Z 00000KT 10SM CLR 17/13 A3009 RMK AO2 SLP180 T01670128
KPTW - Pottstown, Pennsylvania, USA
Distance from station: SSE 71mi, 114km
Updated: Tue, 16-Jul-2019 5:54am EDT
Clear
Clear
 Wind from calm
Wind: Calm
Temperature: 61°F , 16°C
Dew Point: 61°F , 16°C
Humidity: 100%
Barometer: 30.10 inHg , 1019.3 hPa
Clouds: Clear
Visibility: 7 miles , 11 km
2019/07/16 09:54 KPTW 160954Z AUTO 00000KT 7SM CLR 16/16 A3010 RMK AO2 SLP188 T01610161 $
 
KDYL - Doylestown, Pennsylvania, USA
Distance from station: SE 74mi, 119km
Updated: Tue, 16-Jul-2019 5:54am EDT
Clear
Clear
 Wind from NE
Wind: NE 6 mph , 9 km/h
Temperature: 66°F , 19°C
Dew Point: 61°F , 16°C
Humidity: 83%
Barometer: 30.08 inHg , 1018.6 hPa
Clouds: Clear
Visibility: 10 miles , 16 km
2019/07/16 09:54 KDYL 160954Z AUTO 04005KT 10SM CLR 19/16 A3008 RMK AO2 RAB17E26 SLP180 P0000 T01890161
KSMQ - Somerville, New Jersey, USA
Distance from station: ESE 77mi, 124km
Updated: Tue, 16-Jul-2019 5:53am EDT
Clear
Clear
 Wind from calm
Wind: Calm
Temperature: 63°F , 17°C
Dew Point: 61°F , 16°C
Humidity: 94%
Barometer: 30.06 inHg , 1017.9 hPa
Clouds: Clear
Visibility: 8 miles , 13 km
2019/07/16 09:53 KSMQ 160953Z AUTO 00000KT 8SM CLR 17/16 A3006 RMK AO2 SLP180 T01670156
 
KLNS - Lancaster, Pennsylvania, USA
Distance from station: SSW 79mi, 127km
Updated: Tue, 16-Jul-2019 5:53am EDT
Clear
Clear
 Wind from calm
Wind: Calm
Temperature: 66°F , 19°C
Dew Point: 63°F , 17°C
Humidity: 88%
Barometer: 30.09 inHg , 1019 hPa
Clouds: Clear
Visibility: 10 miles , 16 km
2019/07/16 09:53 KLNS 160953Z 00000KT 10SM CLR 19/17 A3009 RMK AO2 SLP185 T01890172
KELM - Elmira, New York, USA
Distance from station: NW 82mi, 132km
Updated: Tue, 16-Jul-2019 5:53am EDT
Partly cloudy
Partly cloudy
 Wind from calm
Wind: Calm
Temperature: 61°F , 16°C
Dew Point: 61°F , 16°C
Humidity: 100%
Barometer: 30.07 inHg , 1018.3 hPa
Clouds: Partly cloudy
Visibility: 10 miles , 16 km
Cloud details: Partly cloudy 12000 ft
2019/07/16 09:53 KELM 160953Z 00000KT 10SM SCT120 16/16 A3007 RMK AO2 SLP176 T01610156
 
KLOM - Philly Wings F, Pennsylvania, USA
Distance from station: SSE 82mi, 132km
Updated: Tue, 16-Jul-2019 5:55am EDT
Clear
Clear
 
Temperature: 63°F , 17°C
Dew Point: 63°F , 17°C
Humidity: 100%
Barometer: 30.09 inHg , 1019 hPa
Clouds: Clear
Visibility: 10 miles , 16 km
2019/07/16 09:55 KLOM 160955Z AUTO 10SM CLR 17/17 A3009 RMK AO2 T01690167
KMMU - Morristown Muni, New Jersey, USA
Distance from station: ESE 83mi, 134km
Updated: Tue, 16-Jul-2019 5:55am EDT
Clear
Clear
 Wind from calm
Wind: Calm
Temperature: 61°F , 16°C
Dew Point: 61°F , 16°C
Humidity: 100%
Barometer: 30.08 inHg , 1018.6 hPa
Clouds: Clear
Visibility: 10 miles , 16 km
2019/07/16 09:55 KMMU 160955Z AUTO 00000KT 10SM CLR 16/16 A3008 RMK AO2

Metar display script from Saratoga-Weather.org


Cairn Terrier Rescue
teddybearweather.com 2009-2018